sensor_id;sensor_type;location;lat;lon;timestamp;P1;durP1;ratioP1;P2;durP2;ratioP2
15915;SDS011;8057;47.830;-3.870;2022-07-23T00:02:28;3.60;;;2.10;;
15915;SDS011;8057;47.830;-3.870;2022-07-23T00:06:37;3.47;;;2.30;;
15915;SDS011;8057;47.830;-3.870;2022-07-23T00:10:48;2.97;;;2.27;;
15915;SDS011;8057;47.830;-3.870;2022-07-23T00:14:57;2.70;;;2.50;;
15915;SDS011;8057;47.830;-3.870;2022-07-23T00:19:05;2.63;;;2.43;;
15915;SDS011;8057;47.830;-3.870;2022-07-23T00:23:14;2.53;;;2.30;;
15915;SDS011;8057;47.830;-3.870;2022-07-23T00:27:24;2.93;;;2.30;;
15915;SDS011;8057;47.830;-3.870;2022-07-23T00:31:33;2.80;;;2.20;;
15915;SDS011;8057;47.830;-3.870;2022-07-23T00:35:42;2.77;;;2.43;;
15915;SDS011;8057;47.830;-3.870;2022-07-23T00:39:51;2.57;;;2.10;;
15915;SDS011;8057;47.830;-3.870;2022-07-23T00:44:15;3.67;;;3.10;;
15915;SDS011;8057;47.830;-3.870;2022-07-23T00:48:24;3.03;;;2.60;;
15915;SDS011;8057;47.830;-3.870;2022-07-23T00:52:34;4.57;;;2.83;;
15915;SDS011;8057;47.830;-3.870;2022-07-23T00:56:44;3.47;;;2.33;;
15915;SDS011;8057;47.830;-3.870;2022-07-23T01:00:55;2.90;;;2.60;;
15915;SDS011;8057;47.830;-3.870;2022-07-23T01:05:05;3.93;;;3.03;;
15915;SDS011;8057;47.830;-3.870;2022-07-23T01:09:14;3.07;;;2.77;;
15915;SDS011;8057;47.830;-3.870;2022-07-23T01:13:23;4.17;;;2.53;;
15915;SDS011;8057;47.830;-3.870;2022-07-23T01:17:33;2.10;;;1.90;;
15915;SDS011;8057;47.830;-3.870;2022-07-23T01:21:43;2.83;;;1.93;;
15915;SDS011;8057;47.830;-3.870;2022-07-23T01:25:54;3.33;;;2.50;;
15915;SDS011;8057;47.830;-3.870;2022-07-23T01:30:03;3.13;;;2.43;;
15915;SDS011;8057;47.830;-3.870;2022-07-23T01:34:13;2.97;;;2.67;;
15915;SDS011;8057;47.830;-3.870;2022-07-23T01:38:22;2.83;;;2.40;;
15915;SDS011;8057;47.830;-3.870;2022-07-23T01:42:32;2.63;;;2.37;;
15915;SDS011;8057;47.830;-3.870;2022-07-23T01:46:41;2.73;;;2.50;;
15915;SDS011;8057;47.830;-3.870;2022-07-23T01:50:50;2.70;;;2.50;;
15915;SDS011;8057;47.830;-3.870;2022-07-23T01:54:59;5.77;;;2.57;;
15915;SDS011;8057;47.830;-3.870;2022-07-23T01:59:09;3.53;;;3.00;;
15915;SDS011;8057;47.830;-3.870;2022-07-23T02:03:18;3.90;;;2.60;;
15915;SDS011;8057;47.830;-3.870;2022-07-23T02:07:27;3.50;;;3.07;;
15915;SDS011;8057;47.830;-3.870;2022-07-23T02:11:40;3.40;;;3.10;;
15915;SDS011;8057;47.830;-3.870;2022-07-23T02:15:50;2.60;;;2.40;;
15915;SDS011;8057;47.830;-3.870;2022-07-23T02:19:59;3.53;;;3.20;;
15915;SDS011;8057;47.830;-3.870;2022-07-23T02:24:08;3.80;;;3.13;;
15915;SDS011;8057;47.830;-3.870;2022-07-23T02:28:18;4.77;;;3.03;;
15915;SDS011;8057;47.830;-3.870;2022-07-23T02:32:28;2.70;;;2.50;;
15915;SDS011;8057;47.830;-3.870;2022-07-23T02:36:37;3.20;;;2.27;;
15915;SDS011;8057;47.830;-3.870;2022-07-23T02:40:46;3.00;;;2.57;;
15915;SDS011;8057;47.830;-3.870;2022-07-23T02:44:55;3.40;;;3.10;;
15915;SDS011;8057;47.830;-3.870;2022-07-23T02:49:05;3.03;;;2.57;;
15915;SDS011;8057;47.830;-3.870;2022-07-23T02:53:14;3.40;;;3.10;;
15915;SDS011;8057;47.830;-3.870;2022-07-23T02:57:23;3.50;;;2.70;;
15915;SDS011;8057;47.830;-3.870;2022-07-23T03:01:32;3.53;;;3.13;;
15915;SDS011;8057;47.830;-3.870;2022-07-23T03:05:42;2.67;;;2.47;;
15915;SDS011;8057;47.830;-3.870;2022-07-23T03:09:51;3.20;;;2.90;;
15915;SDS011;8057;47.830;-3.870;2022-07-23T03:13:59;3.03;;;2.73;;
15915;SDS011;8057;47.830;-3.870;2022-07-23T03:18:08;3.03;;;2.70;;
15915;SDS011;8057;47.830;-3.870;2022-07-23T03:22:18;3.77;;;3.37;;
15915;SDS011;8057;47.830;-3.870;2022-07-23T03:26:27;4.27;;;3.17;;
15915;SDS011;8057;47.830;-3.870;2022-07-23T03:30:36;2.70;;;2.47;;
15915;SDS011;8057;47.830;-3.870;2022-07-23T03:34:45;3.67;;;2.90;;
15915;SDS011;8057;47.830;-3.870;2022-07-23T03:38:55;3.60;;;2.90;;
15915;SDS011;8057;47.830;-3.870;2022-07-23T03:43:07;3.40;;;3.10;;
15915;SDS011;8057;47.830;-3.870;2022-07-23T03:47:16;4.97;;;2.90;;
15915;SDS011;8057;47.830;-3.870;2022-07-23T03:51:28;4.80;;;3.03;;
15915;SDS011;8057;47.830;-3.870;2022-07-23T03:55:38;2.90;;;2.57;;
15915;SDS011;8057;47.830;-3.870;2022-07-23T03:59:47;2.90;;;2.70;;
15915;SDS011;8057;47.830;-3.870;2022-07-23T04:03:56;2.90;;;2.60;;
15915;SDS011;8057;47.830;-3.870;2022-07-23T04:08:05;5.90;;;2.90;;
15915;SDS011;8057;47.830;-3.870;2022-07-23T04:12:15;4.20;;;3.30;;
15915;SDS011;8057;47.830;-3.870;2022-07-23T04:16:24;4.20;;;3.27;;
15915;SDS011;8057;47.830;-3.870;2022-07-23T04:20:33;4.33;;;3.30;;
15915;SDS011;8057;47.830;-3.870;2022-07-23T04:24:46;4.13;;;2.83;;
15915;SDS011;8057;47.830;-3.870;2022-07-23T04:28:57;4.90;;;2.90;;
15915;SDS011;8057;47.830;-3.870;2022-07-23T04:33:06;3.03;;;2.67;;
15915;SDS011;8057;47.830;-3.870;2022-07-23T04:37:15;3.53;;;3.17;;
15915;SDS011;8057;47.830;-3.870;2022-07-23T04:41:24;3.47;;;3.13;;
15915;SDS011;8057;47.830;-3.870;2022-07-23T04:45:34;2.90;;;2.70;;
15915;SDS011;8057;47.830;-3.870;2022-07-23T04:49:43;5.00;;;3.90;;
15915;SDS011;8057;47.830;-3.870;2022-07-23T04:53:52;4.57;;;3.23;;
15915;SDS011;8057;47.830;-3.870;2022-07-23T04:58:00;3.40;;;3.20;;
15915;SDS011;8057;47.830;-3.870;2022-07-23T05:02:11;3.30;;;3.00;;
15915;SDS011;8057;47.830;-3.870;2022-07-23T05:06:20;4.20;;;3.80;;
15915;SDS011;8057;47.830;-3.870;2022-07-23T05:10:28;4.00;;;3.50;;
15915;SDS011;8057;47.830;-3.870;2022-07-23T05:14:37;3.80;;;3.50;;
15915;SDS011;8057;47.830;-3.870;2022-07-23T05:18:47;3.40;;;3.10;;
15915;SDS011;8057;47.830;-3.870;2022-07-23T05:22:56;3.57;;;3.27;;
15915;SDS011;8057;47.830;-3.870;2022-07-23T05:27:05;3.70;;;3.40;;
15915;SDS011;8057;47.830;-3.870;2022-07-23T05:31:14;5.13;;;4.00;;
15915;SDS011;8057;47.830;-3.870;2022-07-23T05:35:25;3.93;;;3.47;;
15915;SDS011;8057;47.830;-3.870;2022-07-23T05:39:34;4.17;;;3.53;;
15915;SDS011;8057;47.830;-3.870;2022-07-23T05:43:43;4.57;;;3.57;;
15915;SDS011;8057;47.830;-3.870;2022-07-23T05:47:52;3.93;;;3.53;;
15915;SDS011;8057;47.830;-3.870;2022-07-23T05:52:04;3.87;;;3.47;;
15915;SDS011;8057;47.830;-3.870;2022-07-23T05:56:14;4.17;;;3.57;;
15915;SDS011;8057;47.830;-3.870;2022-07-23T06:00:23;3.80;;;3.17;;
15915;SDS011;8057;47.830;-3.870;2022-07-23T06:04:33;4.33;;;3.93;;
15915;SDS011;8057;47.830;-3.870;2022-07-23T06:08:44;4.27;;;3.73;;
15915;SDS011;8057;47.830;-3.870;2022-07-23T06:12:52;3.67;;;3.37;;
15915;SDS011;8057;47.830;-3.870;2022-07-23T06:17:07;4.07;;;3.53;;
15915;SDS011;8057;47.830;-3.870;2022-07-23T06:21:16;3.90;;;2.87;;
15915;SDS011;8057;47.830;-3.870;2022-07-23T06:25:46;4.43;;;3.70;;
15915;SDS011;8057;47.830;-3.870;2022-07-23T06:29:55;3.47;;;3.17;;
15915;SDS011;8057;47.830;-3.870;2022-07-23T06:34:05;3.83;;;2.90;;
15915;SDS011;8057;47.830;-3.870;2022-07-23T06:38:13;3.67;;;3.23;;
15915;SDS011;8057;47.830;-3.870;2022-07-23T06:42:24;3.63;;;2.77;;
15915;SDS011;8057;47.830;-3.870;2022-07-23T06:46:33;3.17;;;2.87;;
15915;SDS011;8057;47.830;-3.870;2022-07-23T06:50:42;4.00;;;2.57;;
15915;SDS011;8057;47.830;-3.870;2022-07-23T06:54:50;2.47;;;2.27;;
15915;SDS011;8057;47.830;-3.870;2022-07-23T06:59:00;2.40;;;2.20;;
15915;SDS011;8057;47.830;-3.870;2022-07-23T07:03:10;2.87;;;2.57;;
15915;SDS011;8057;47.830;-3.870;2022-07-23T07:07:18;2.80;;;2.60;;
15915;SDS011;8057;47.830;-3.870;2022-07-23T07:11:27;2.97;;;2.57;;
15915;SDS011;8057;47.830;-3.870;2022-07-23T07:15:37;2.10;;;1.90;;
15915;SDS011;8057;47.830;-3.870;2022-07-23T07:19:46;4.07;;;2.00;;
15915;SDS011;8057;47.830;-3.870;2022-07-23T07:23:55;1.90;;;1.80;;
15915;SDS011;8057;47.830;-3.870;2022-07-23T07:28:04;2.33;;;2.10;;
15915;SDS011;8057;47.830;-3.870;2022-07-23T07:32:14;2.00;;;1.90;;
15915;SDS011;8057;47.830;-3.870;2022-07-23T07:36:43;2.77;;;2.50;;
15915;SDS011;8057;47.830;-3.870;2022-07-23T07:40:52;1.87;;;1.77;;
15915;SDS011;8057;47.830;-3.870;2022-07-23T07:45:01;2.07;;;1.60;;
15915;SDS011;8057;47.830;-3.870;2022-07-23T07:49:11;1.57;;;1.47;;
15915;SDS011;8057;47.830;-3.870;2022-07-23T07:53:40;1.80;;;1.70;;
15915;SDS011;8057;47.830;-3.870;2022-07-23T07:57:51;1.87;;;1.77;;
15915;SDS011;8057;47.830;-3.870;2022-07-23T08:02:00;1.87;;;1.63;;
15915;SDS011;8057;47.830;-3.870;2022-07-23T08:06:10;1.83;;;1.60;;
15915;SDS011;8057;47.830;-3.870;2022-07-23T08:10:19;1.73;;;1.60;;
15915;SDS011;8057;47.830;-3.870;2022-07-23T08:14:28;2.03;;;1.83;;
15915;SDS011;8057;47.830;-3.870;2022-07-23T08:18:37;2.27;;;1.47;;
15915;SDS011;8057;47.830;-3.870;2022-07-23T08:22:49;1.57;;;1.47;;
15915;SDS011;8057;47.830;-3.870;2022-07-23T08:26:58;2.00;;;1.40;;
15915;SDS011;8057;47.830;-3.870;2022-07-23T08:31:07;1.73;;;1.50;;
15915;SDS011;8057;47.830;-3.870;2022-07-23T08:35:21;1.80;;;1.70;;
15915;SDS011;8057;47.830;-3.870;2022-07-23T08:39:32;2.00;;;1.23;;
15915;SDS011;8057;47.830;-3.870;2022-07-23T08:43:41;1.17;;;1.17;;
15915;SDS011;8057;47.830;-3.870;2022-07-23T08:47:51;1.80;;;1.47;;
15915;SDS011;8057;47.830;-3.870;2022-07-23T08:52:02;1.10;;;1.10;;
15915;SDS011;8057;47.830;-3.870;2022-07-23T08:56:14;1.20;;;1.10;;
15915;SDS011;8057;47.830;-3.870;2022-07-23T09:00:22;1.70;;;1.50;;
15915;SDS011;8057;47.830;-3.870;2022-07-23T09:04:31;1.83;;;1.20;;
15915;SDS011;8057;47.830;-3.870;2022-07-23T09:08:41;1.40;;;1.30;;
15915;SDS011;8057;47.830;-3.870;2022-07-23T09:12:52;2.73;;;1.70;;
15915;SDS011;8057;47.830;-3.870;2022-07-23T09:17:07;1.43;;;1.13;;
15915;SDS011;8057;47.830;-3.870;2022-07-23T09:21:18;1.37;;;1.27;;
15915;SDS011;8057;47.830;-3.870;2022-07-23T09:25:29;1.03;;;1.00;;
15915;SDS011;8057;47.830;-3.870;2022-07-23T09:29:40;1.10;;;0.93;;
15915;SDS011;8057;47.830;-3.870;2022-07-23T09:34:11;1.40;;;1.30;;
15915;SDS011;8057;47.830;-3.870;2022-07-23T09:38:22;1.00;;;1.00;;
15915;SDS011;8057;47.830;-3.870;2022-07-23T09:42:32;1.23;;;1.00;;
15915;SDS011;8057;47.830;-3.870;2022-07-23T09:46:42;1.00;;;0.90;;
15915;SDS011;8057;47.830;-3.870;2022-07-23T09:50:52;2.10;;;0.87;;
15915;SDS011;8057;47.830;-3.870;2022-07-23T09:55:10;2.00;;;0.90;;
15915;SDS011;8057;47.830;-3.870;2022-07-23T09:59:21;0.80;;;0.80;;
15915;SDS011;8057;47.830;-3.870;2022-07-23T10:03:34;1.73;;;0.87;;
15915;SDS011;8057;47.830;-3.870;2022-07-23T10:07:44;1.73;;;0.83;;
15915;SDS011;8057;47.830;-3.870;2022-07-23T10:11:59;1.43;;;1.00;;
15915;SDS011;8057;47.830;-3.870;2022-07-23T10:16:28;1.07;;;0.90;;
15915;SDS011;8057;47.830;-3.870;2022-07-23T10:20:39;0.83;;;0.70;;
15915;SDS011;8057;47.830;-3.870;2022-07-23T10:24:53;1.70;;;0.80;;
15915;SDS011;8057;47.830;-3.870;2022-07-23T10:29:11;1.67;;;0.83;;
15915;SDS011;8057;47.830;-3.870;2022-07-23T10:33:29;0.80;;;0.80;;
15915;SDS011;8057;47.830;-3.870;2022-07-23T10:37:48;0.83;;;0.83;;
15915;SDS011;8057;47.830;-3.870;2022-07-23T10:42:08;1.20;;;1.10;;
15915;SDS011;8057;47.830;-3.870;2022-07-23T10:46:21;1.27;;;0.90;;
15915;SDS011;8057;47.830;-3.870;2022-07-23T10:50:34;0.80;;;0.80;;
15915;SDS011;8057;47.830;-3.870;2022-07-23T10:54:45;0.87;;;0.80;;
15915;SDS011;8057;47.830;-3.870;2022-07-23T10:58:56;1.43;;;0.80;;
15915;SDS011;8057;47.830;-3.870;2022-07-23T11:03:27;1.57;;;0.90;;
15915;SDS011;8057;47.830;-3.870;2022-07-23T11:12:34;1.07;;;0.73;;
15915;SDS011;8057;47.830;-3.870;2022-07-23T11:16:46;1.30;;;0.80;;
15915;SDS011;8057;47.830;-3.870;2022-07-23T11:20:55;1.10;;;0.90;;
15915;SDS011;8057;47.830;-3.870;2022-07-23T11:25:04;1.20;;;0.70;;
15915;SDS011;8057;47.830;-3.870;2022-07-23T11:38:38;0.80;;;0.80;;
15915;SDS011;8057;47.830;-3.870;2022-07-23T11:42:52;1.07;;;0.70;;
15915;SDS011;8057;47.830;-3.870;2022-07-23T11:47:04;0.70;;;0.70;;
15915;SDS011;8057;47.830;-3.870;2022-07-23T11:51:24;0.90;;;0.87;;
15915;SDS011;8057;47.830;-3.870;2022-07-23T11:55:34;0.60;;;0.60;;
15915;SDS011;8057;47.830;-3.870;2022-07-23T11:59:43;0.93;;;0.70;;
15915;SDS011;8057;47.830;-3.870;2022-07-23T12:03:56;0.83;;;0.83;;
15915;SDS011;8057;47.830;-3.870;2022-07-23T12:08:06;0.60;;;0.60;;
15915;SDS011;8057;47.830;-3.870;2022-07-23T12:12:17;1.27;;;0.63;;
15915;SDS011;8057;47.830;-3.870;2022-07-23T12:16:26;0.90;;;0.90;;
15915;SDS011;8057;47.830;-3.870;2022-07-23T12:20:37;0.87;;;0.80;;
15915;SDS011;8057;47.830;-3.870;2022-07-23T12:24:53;0.80;;;0.80;;
15915;SDS011;8057;47.830;-3.870;2022-07-23T12:29:05;3.30;;;0.93;;
15915;SDS011;8057;47.830;-3.870;2022-07-23T12:33:15;1.10;;;0.80;;
15915;SDS011;8057;47.830;-3.870;2022-07-23T12:37:32;1.03;;;0.73;;
15915;SDS011;8057;47.830;-3.870;2022-07-23T12:41:52;0.70;;;0.70;;
15915;SDS011;8057;47.830;-3.870;2022-07-23T12:46:03;0.80;;;0.80;;
15915;SDS011;8057;47.830;-3.870;2022-07-23T12:54:52;0.80;;;0.57;;
15915;SDS011;8057;47.830;-3.870;2022-07-23T12:59:04;0.80;;;0.70;;
15915;SDS011;8057;47.830;-3.870;2022-07-23T13:03:21;0.87;;;0.70;;
15915;SDS011;8057;47.830;-3.870;2022-07-23T13:07:35;0.70;;;0.70;;
15915;SDS011;8057;47.830;-3.870;2022-07-23T13:11:46;0.67;;;0.67;;
15915;SDS011;8057;47.830;-3.870;2022-07-23T13:15:56;0.90;;;0.73;;
15915;SDS011;8057;47.830;-3.870;2022-07-23T13:20:06;0.67;;;0.60;;
15915;SDS011;8057;47.830;-3.870;2022-07-23T13:24:16;1.03;;;0.90;;
15915;SDS011;8057;47.830;-3.870;2022-07-23T13:28:26;1.33;;;0.80;;
15915;SDS011;8057;47.830;-3.870;2022-07-23T13:32:35;2.40;;;0.80;;
15915;SDS011;8057;47.830;-3.870;2022-07-23T13:36:44;0.97;;;0.80;;
15915;SDS011;8057;47.830;-3.870;2022-07-23T13:40:53;0.93;;;0.73;;
15915;SDS011;8057;47.830;-3.870;2022-07-23T13:45:05;1.60;;;0.67;;
15915;SDS011;8057;47.830;-3.870;2022-07-23T13:49:18;0.70;;;0.70;;
15915;SDS011;8057;47.830;-3.870;2022-07-23T13:53:28;0.80;;;0.80;;
15915;SDS011;8057;47.830;-3.870;2022-07-23T13:57:37;2.00;;;0.90;;
15915;SDS011;8057;47.830;-3.870;2022-07-23T14:01:48;1.47;;;0.90;;
15915;SDS011;8057;47.830;-3.870;2022-07-23T14:06:17;1.13;;;0.83;;
15915;SDS011;8057;47.830;-3.870;2022-07-23T14:10:38;0.60;;;0.60;;
15915;SDS011;8057;47.830;-3.870;2022-07-23T14:14:48;1.43;;;0.80;;
15915;SDS011;8057;47.830;-3.870;2022-07-23T14:19:00;0.90;;;0.90;;
15915;SDS011;8057;47.830;-3.870;2022-07-23T14:23:10;1.13;;;0.70;;
15915;SDS011;8057;47.830;-3.870;2022-07-23T14:27:19;0.70;;;0.70;;
15915;SDS011;8057;47.830;-3.870;2022-07-23T14:31:28;1.17;;;0.90;;
15915;SDS011;8057;47.830;-3.870;2022-07-23T14:35:39;1.00;;;0.80;;
15915;SDS011;8057;47.830;-3.870;2022-07-23T14:39:49;2.47;;;1.20;;
15915;SDS011;8057;47.830;-3.870;2022-07-23T14:43:58;0.70;;;0.70;;
15915;SDS011;8057;47.830;-3.870;2022-07-23T14:48:08;2.67;;;0.70;;
15915;SDS011;8057;47.830;-3.870;2022-07-23T14:52:18;0.90;;;0.73;;
15915;SDS011;8057;47.830;-3.870;2022-07-23T14:56:27;1.10;;;1.00;;
15915;SDS011;8057;47.830;-3.870;2022-07-23T15:00:36;0.70;;;0.70;;
15915;SDS011;8057;47.830;-3.870;2022-07-23T15:04:45;0.60;;;0.50;;
15915;SDS011;8057;47.830;-3.870;2022-07-23T15:08:55;1.63;;;0.83;;
15915;SDS011;8057;47.830;-3.870;2022-07-23T15:13:05;0.70;;;0.70;;
15915;SDS011;8057;47.830;-3.870;2022-07-23T15:17:14;0.77;;;0.70;;
15915;SDS011;8057;47.830;-3.870;2022-07-23T15:21:22;0.63;;;0.60;;
15915;SDS011;8057;47.830;-3.870;2022-07-23T15:25:33;1.27;;;0.80;;
15915;SDS011;8057;47.830;-3.870;2022-07-23T15:29:43;0.97;;;0.87;;
15915;SDS011;8057;47.830;-3.870;2022-07-23T15:33:52;1.10;;;1.00;;
15915;SDS011;8057;47.830;-3.870;2022-07-23T15:38:02;0.60;;;0.60;;
15915;SDS011;8057;47.830;-3.870;2022-07-23T15:42:20;0.87;;;0.60;;
15915;SDS011;8057;47.830;-3.870;2022-07-23T15:46:30;1.10;;;0.70;;
15915;SDS011;8057;47.830;-3.870;2022-07-23T15:50:39;0.90;;;0.70;;
15915;SDS011;8057;47.830;-3.870;2022-07-23T15:54:51;0.90;;;0.90;;
15915;SDS011;8057;47.830;-3.870;2022-07-23T15:59:02;0.67;;;0.63;;
15915;SDS011;8057;47.830;-3.870;2022-07-23T16:03:12;0.70;;;0.70;;
15915;SDS011;8057;47.830;-3.870;2022-07-23T16:07:21;1.47;;;0.73;;
15915;SDS011;8057;47.830;-3.870;2022-07-23T16:11:30;3.23;;;0.93;;
15915;SDS011;8057;47.830;-3.870;2022-07-23T16:15:40;1.10;;;0.90;;
15915;SDS011;8057;47.830;-3.870;2022-07-23T16:19:49;0.60;;;0.57;;
15915;SDS011;8057;47.830;-3.870;2022-07-23T16:23:58;0.63;;;0.60;;
15915;SDS011;8057;47.830;-3.870;2022-07-23T16:28:07;0.70;;;0.70;;
15915;SDS011;8057;47.830;-3.870;2022-07-23T16:32:17;1.17;;;0.90;;
15915;SDS011;8057;47.830;-3.870;2022-07-23T16:36:26;0.70;;;0.70;;
15915;SDS011;8057;47.830;-3.870;2022-07-23T16:40:35;2.50;;;1.07;;
15915;SDS011;8057;47.830;-3.870;2022-07-23T16:44:44;1.20;;;0.80;;
15915;SDS011;8057;47.830;-3.870;2022-07-23T16:48:54;1.43;;;0.60;;
15915;SDS011;8057;47.830;-3.870;2022-07-23T16:53:03;0.70;;;0.60;;
15915;SDS011;8057;47.830;-3.870;2022-07-23T16:57:12;0.80;;;0.80;;
15915;SDS011;8057;47.830;-3.870;2022-07-23T17:01:21;0.80;;;0.80;;
15915;SDS011;8057;47.830;-3.870;2022-07-23T17:05:31;0.93;;;0.93;;
15915;SDS011;8057;47.830;-3.870;2022-07-23T17:09:40;0.90;;;0.90;;
15915;SDS011;8057;47.830;-3.870;2022-07-23T17:13:49;1.73;;;0.70;;
15915;SDS011;8057;47.830;-3.870;2022-07-23T17:17:58;0.70;;;0.60;;
15915;SDS011;8057;47.830;-3.870;2022-07-23T17:22:08;0.73;;;0.60;;
15915;SDS011;8057;47.830;-3.870;2022-07-23T17:26:17;0.83;;;0.83;;
15915;SDS011;8057;47.830;-3.870;2022-07-23T17:30:26;1.30;;;0.90;;
15915;SDS011;8057;47.830;-3.870;2022-07-23T17:34:36;1.00;;;0.90;;
15915;SDS011;8057;47.830;-3.870;2022-07-23T17:38:46;0.83;;;0.70;;
15915;SDS011;8057;47.830;-3.870;2022-07-23T17:42:57;0.80;;;0.80;;
15915;SDS011;8057;47.830;-3.870;2022-07-23T17:47:06;0.80;;;0.80;;
15915;SDS011;8057;47.830;-3.870;2022-07-23T17:51:14;1.73;;;0.77;;
15915;SDS011;8057;47.830;-3.870;2022-07-23T17:55:25;0.97;;;0.80;;
15915;SDS011;8057;47.830;-3.870;2022-07-23T17:59:34;0.70;;;0.70;;
15915;SDS011;8057;47.830;-3.870;2022-07-23T18:03:43;1.50;;;0.93;;
15915;SDS011;8057;47.830;-3.870;2022-07-23T18:07:53;1.53;;;0.80;;
15915;SDS011;8057;47.830;-3.870;2022-07-23T18:12:04;1.00;;;1.00;;
15915;SDS011;8057;47.830;-3.870;2022-07-23T18:16:14;2.67;;;0.97;;
15915;SDS011;8057;47.830;-3.870;2022-07-23T18:20:23;0.80;;;0.80;;
15915;SDS011;8057;47.830;-3.870;2022-07-23T18:24:32;0.87;;;0.67;;
15915;SDS011;8057;47.830;-3.870;2022-07-23T18:28:42;0.97;;;0.90;;
15915;SDS011;8057;47.830;-3.870;2022-07-23T18:32:51;1.03;;;0.80;;
15915;SDS011;8057;47.830;-3.870;2022-07-23T18:36:59;1.20;;;0.90;;
15915;SDS011;8057;47.830;-3.870;2022-07-23T18:41:08;2.27;;;0.97;;
15915;SDS011;8057;47.830;-3.870;2022-07-23T18:45:19;1.83;;;0.93;;
15915;SDS011;8057;47.830;-3.870;2022-07-23T18:49:27;0.80;;;0.80;;
15915;SDS011;8057;47.830;-3.870;2022-07-23T18:53:36;1.37;;;0.90;;
15915;SDS011;8057;47.830;-3.870;2022-07-23T18:57:45;1.63;;;1.00;;
15915;SDS011;8057;47.830;-3.870;2022-07-23T19:01:56;1.83;;;1.10;;
15915;SDS011;8057;47.830;-3.870;2022-07-23T19:06:05;1.40;;;1.30;;
15915;SDS011;8057;47.830;-3.870;2022-07-23T19:10:14;0.77;;;0.77;;
15915;SDS011;8057;47.830;-3.870;2022-07-23T19:14:23;1.10;;;1.00;;
15915;SDS011;8057;47.830;-3.870;2022-07-23T19:18:33;1.63;;;1.10;;
15915;SDS011;8057;47.830;-3.870;2022-07-23T19:22:43;1.20;;;1.10;;
15915;SDS011;8057;47.830;-3.870;2022-07-23T19:26:51;11.93;;;11.17;;
15915;SDS011;8057;47.830;-3.870;2022-07-23T19:31:00;2.90;;;2.70;;
15915;SDS011;8057;47.830;-3.870;2022-07-23T19:35:10;10.37;;;9.57;;
15915;SDS011;8057;47.830;-3.870;2022-07-23T19:39:19;3.23;;;3.03;;
15915;SDS011;8057;47.830;-3.870;2022-07-23T19:43:28;2.60;;;1.97;;
15915;SDS011;8057;47.830;-3.870;2022-07-23T19:47:38;2.73;;;1.10;;
15915;SDS011;8057;47.830;-3.870;2022-07-23T19:51:59;1.20;;;1.10;;
15915;SDS011;8057;47.830;-3.870;2022-07-23T19:56:08;1.37;;;1.00;;
15915;SDS011;8057;47.830;-3.870;2022-07-23T20:00:17;2.30;;;1.30;;
15915;SDS011;8057;47.830;-3.870;2022-07-23T20:04:28;1.67;;;1.30;;
15915;SDS011;8057;47.830;-3.870;2022-07-23T20:08:38;0.90;;;0.80;;
15915;SDS011;8057;47.830;-3.870;2022-07-23T20:12:47;1.40;;;1.20;;
15915;SDS011;8057;47.830;-3.870;2022-07-23T20:16:57;1.93;;;1.10;;
15915;SDS011;8057;47.830;-3.870;2022-07-23T20:21:06;1.00;;;1.00;;
15915;SDS011;8057;47.830;-3.870;2022-07-23T20:25:16;1.53;;;1.10;;
15915;SDS011;8057;47.830;-3.870;2022-07-23T20:29:24;1.40;;;1.10;;
15915;SDS011;8057;47.830;-3.870;2022-07-23T20:33:34;1.23;;;1.17;;
15915;SDS011;8057;47.830;-3.870;2022-07-23T20:37:44;1.80;;;0.90;;
15915;SDS011;8057;47.830;-3.870;2022-07-23T20:41:54;1.23;;;1.10;;
15915;SDS011;8057;47.830;-3.870;2022-07-23T20:46:03;1.13;;;1.13;;
15915;SDS011;8057;47.830;-3.870;2022-07-23T20:50:12;1.33;;;1.20;;
15915;SDS011;8057;47.830;-3.870;2022-07-23T20:54:21;2.27;;;1.10;;
15915;SDS011;8057;47.830;-3.870;2022-07-23T20:58:31;1.60;;;1.50;;
15915;SDS011;8057;47.830;-3.870;2022-07-23T21:02:40;1.10;;;1.10;;
15915;SDS011;8057;47.830;-3.870;2022-07-23T21:06:49;1.33;;;1.00;;
15915;SDS011;8057;47.830;-3.870;2022-07-23T21:10:58;1.20;;;1.10;;
15915;SDS011;8057;47.830;-3.870;2022-07-23T21:15:09;1.20;;;1.00;;
15915;SDS011;8057;47.830;-3.870;2022-07-23T21:19:18;1.47;;;1.20;;
15915;SDS011;8057;47.830;-3.870;2022-07-23T21:23:27;1.50;;;1.40;;
15915;SDS011;8057;47.830;-3.870;2022-07-23T21:27:43;1.30;;;1.20;;
15915;SDS011;8057;47.830;-3.870;2022-07-23T21:31:54;1.30;;;1.20;;
15915;SDS011;8057;47.830;-3.870;2022-07-23T21:36:03;3.70;;;1.37;;
15915;SDS011;8057;47.830;-3.870;2022-07-23T21:40:13;2.77;;;1.23;;
15915;SDS011;8057;47.830;-3.870;2022-07-23T21:44:21;2.23;;;1.37;;
15915;SDS011;8057;47.830;-3.870;2022-07-23T21:48:32;1.50;;;1.40;;
15915;SDS011;8057;47.830;-3.870;2022-07-23T21:52:41;1.97;;;1.13;;
15915;SDS011;8057;47.830;-3.870;2022-07-23T21:56:50;1.50;;;1.40;;
15915;SDS011;8057;47.830;-3.870;2022-07-23T22:00:58;1.83;;;1.50;;
15915;SDS011;8057;47.830;-3.870;2022-07-23T22:05:09;1.30;;;1.20;;
15915;SDS011;8057;47.830;-3.870;2022-07-23T22:09:18;1.50;;;1.30;;
15915;SDS011;8057;47.830;-3.870;2022-07-23T22:13:27;1.83;;;1.50;;
15915;SDS011;8057;47.830;-3.870;2022-07-23T22:17:36;1.63;;;1.40;;
15915;SDS011;8057;47.830;-3.870;2022-07-23T22:21:46;1.70;;;1.50;;
15915;SDS011;8057;47.830;-3.870;2022-07-23T22:25:55;1.60;;;1.50;;
15915;SDS011;8057;47.830;-3.870;2022-07-23T22:30:04;1.40;;;1.30;;
15915;SDS011;8057;47.830;-3.870;2022-07-23T22:34:15;1.47;;;1.40;;
15915;SDS011;8057;47.830;-3.870;2022-07-23T22:38:26;1.40;;;1.30;;
15915;SDS011;8057;47.830;-3.870;2022-07-23T22:42:34;1.40;;;1.30;;
15915;SDS011;8057;47.830;-3.870;2022-07-23T22:46:43;1.73;;;1.40;;
15915;SDS011;8057;47.830;-3.870;2022-07-23T22:50:52;1.80;;;1.70;;
15915;SDS011;8057;47.830;-3.870;2022-07-23T22:55:03;1.40;;;1.30;;
15915;SDS011;8057;47.830;-3.870;2022-07-23T22:59:12;1.27;;;1.27;;
15915;SDS011;8057;47.830;-3.870;2022-07-23T23:03:37;1.60;;;1.50;;
15915;SDS011;8057;47.830;-3.870;2022-07-23T23:07:45;1.30;;;1.20;;
15915;SDS011;8057;47.830;-3.870;2022-07-23T23:11:56;1.40;;;1.30;;
15915;SDS011;8057;47.830;-3.870;2022-07-23T23:16:05;1.43;;;1.33;;
15915;SDS011;8057;47.830;-3.870;2022-07-23T23:20:15;1.87;;;1.67;;
15915;SDS011;8057;47.830;-3.870;2022-07-23T23:24:24;1.50;;;1.40;;
15915;SDS011;8057;47.830;-3.870;2022-07-23T23:28:34;1.53;;;1.43;;
15915;SDS011;8057;47.830;-3.870;2022-07-23T23:32:43;1.30;;;1.30;;
15915;SDS011;8057;47.830;-3.870;2022-07-23T23:36:51;2.27;;;1.57;;
15915;SDS011;8057;47.830;-3.870;2022-07-23T23:41:00;1.77;;;1.53;;
15915;SDS011;8057;47.830;-3.870;2022-07-23T23:45:11;1.67;;;1.57;;
15915;SDS011;8057;47.830;-3.870;2022-07-23T23:49:20;1.70;;;1.57;;
15915;SDS011;8057;47.830;-3.870;2022-07-23T23:53:29;4.83;;;1.70;;
15915;SDS011;8057;47.830;-3.870;2022-07-23T23:57:38;1.73;;;1.50;;
